sensor_id;sensor_type;location;lat;lon;timestamp;P1;durP1;ratioP1;P2;durP2;ratioP2
60851;SDS011;48553;50.766;2.900;2023-11-21T00:00:59;14.90;;;5.82;;
60851;SDS011;48553;50.766;2.900;2023-11-21T00:04:01;14.98;;;5.13;;
60851;SDS011;48553;50.766;2.900;2023-11-21T00:07:01;13.38;;;4.93;;
60851;SDS011;48553;50.766;2.900;2023-11-21T00:10:02;13.75;;;5.80;;
60851;SDS011;48553;50.766;2.900;2023-11-21T00:13:05;14.85;;;5.82;;
60851;SDS011;48553;50.766;2.900;2023-11-21T00:16:05;20.63;;;6.30;;
60851;SDS011;48553;50.766;2.900;2023-11-21T00:19:07;19.05;;;6.40;;
60851;SDS011;48553;50.766;2.900;2023-11-21T00:22:08;15.85;;;6.05;;
60851;SDS011;48553;50.766;2.900;2023-11-21T00:25:09;17.52;;;6.20;;
60851;SDS011;48553;50.766;2.900;2023-11-21T00:28:10;15.80;;;6.05;;
60851;SDS011;48553;50.766;2.900;2023-11-21T00:31:10;15.82;;;5.88;;
60851;SDS011;48553;50.766;2.900;2023-11-21T00:34:11;16.38;;;6.00;;
60851;SDS011;48553;50.766;2.900;2023-11-21T00:37:12;18.63;;;6.03;;
60851;SDS011;48553;50.766;2.900;2023-11-21T00:40:12;13.43;;;5.85;;
60851;SDS011;48553;50.766;2.900;2023-11-21T00:43:15;18.83;;;6.25;;
60851;SDS011;48553;50.766;2.900;2023-11-21T00:46:15;20.08;;;5.90;;
60851;SDS011;48553;50.766;2.900;2023-11-21T00:49:16;18.95;;;6.43;;
60851;SDS011;48553;50.766;2.900;2023-11-21T00:52:16;13.52;;;5.90;;
60851;SDS011;48553;50.766;2.900;2023-11-21T00:55:16;14.85;;;5.80;;
60851;SDS011;48553;50.766;2.900;2023-11-21T00:58:18;17.95;;;5.65;;
60851;SDS011;48553;50.766;2.900;2023-11-21T01:01:18;16.40;;;6.38;;
60851;SDS011;48553;50.766;2.900;2023-11-21T01:04:19;17.02;;;6.13;;
60851;SDS011;48553;50.766;2.900;2023-11-21T01:07:19;16.83;;;5.93;;
60851;SDS011;48553;50.766;2.900;2023-11-21T01:10:20;16.95;;;6.00;;
60851;SDS011;48553;50.766;2.900;2023-11-21T01:13:20;19.95;;;6.20;;
60851;SDS011;48553;50.766;2.900;2023-11-21T01:16:21;17.30;;;5.60;;
60851;SDS011;48553;50.766;2.900;2023-11-21T01:19:22;18.00;;;6.13;;
60851;SDS011;48553;50.766;2.900;2023-11-21T01:22:22;15.13;;;6.10;;
60851;SDS011;48553;50.766;2.900;2023-11-21T01:25:25;12.30;;;5.88;;
60851;SDS011;48553;50.766;2.900;2023-11-21T01:28:26;15.82;;;6.00;;
60851;SDS011;48553;50.766;2.900;2023-11-21T01:31:28;12.40;;;5.47;;
60851;SDS011;48553;50.766;2.900;2023-11-21T01:34:29;15.60;;;6.05;;
60851;SDS011;48553;50.766;2.900;2023-11-21T01:37:30;15.52;;;5.97;;
60851;SDS011;48553;50.766;2.900;2023-11-21T01:40:31;13.90;;;5.32;;
60851;SDS011;48553;50.766;2.900;2023-11-21T01:43:31;15.82;;;5.30;;
60851;SDS011;48553;50.766;2.900;2023-11-21T01:46:32;12.98;;;5.20;;
60851;SDS011;48553;50.766;2.900;2023-11-21T01:49:32;16.63;;;5.82;;
60851;SDS011;48553;50.766;2.900;2023-11-21T01:52:34;10.20;;;5.00;;
60851;SDS011;48553;50.766;2.900;2023-11-21T01:55:35;12.30;;;4.90;;
60851;SDS011;48553;50.766;2.900;2023-11-21T01:58:35;11.77;;;5.63;;
60851;SDS011;48553;50.766;2.900;2023-11-21T02:01:36;14.20;;;5.72;;
60851;SDS011;48553;50.766;2.900;2023-11-21T02:04:36;13.88;;;5.60;;
60851;SDS011;48553;50.766;2.900;2023-11-21T02:07:37;20.40;;;6.80;;
60851;SDS011;48553;50.766;2.900;2023-11-21T02:10:37;14.40;;;6.50;;
60851;SDS011;48553;50.766;2.900;2023-11-21T02:13:38;17.67;;;7.03;;
60851;SDS011;48553;50.766;2.900;2023-11-21T02:16:42;19.20;;;7.50;;
60851;SDS011;48553;50.766;2.900;2023-11-21T02:19:45;18.65;;;7.93;;
60851;SDS011;48553;50.766;2.900;2023-11-21T02:22:50;19.65;;;8.68;;
60851;SDS011;48553;50.766;2.900;2023-11-21T02:25:57;16.42;;;8.45;;
60851;SDS011;48553;50.766;2.900;2023-11-21T02:28:58;22.13;;;9.45;;
60851;SDS011;48553;50.766;2.900;2023-11-21T02:31:59;18.38;;;8.93;;
60851;SDS011;48553;50.766;2.900;2023-11-21T02:34:59;22.20;;;9.00;;
60851;SDS011;48553;50.766;2.900;2023-11-21T02:38:07;24.77;;;9.88;;
60851;SDS011;48553;50.766;2.900;2023-11-21T02:41:08;23.42;;;10.25;;
60851;SDS011;48553;50.766;2.900;2023-11-21T02:44:08;21.80;;;10.48;;
60851;SDS011;48553;50.766;2.900;2023-11-21T02:47:09;27.83;;;10.15;;
60851;SDS011;48553;50.766;2.900;2023-11-21T02:50:10;26.25;;;10.55;;
60851;SDS011;48553;50.766;2.900;2023-11-21T02:53:10;23.00;;;10.85;;
60851;SDS011;48553;50.766;2.900;2023-11-21T02:56:11;26.75;;;10.85;;
60851;SDS011;48553;50.766;2.900;2023-11-21T02:59:11;22.63;;;9.88;;
60851;SDS011;48553;50.766;2.900;2023-11-21T03:02:12;25.80;;;10.75;;
60851;SDS011;48553;50.766;2.900;2023-11-21T03:05:12;25.48;;;10.52;;
60851;SDS011;48553;50.766;2.900;2023-11-21T03:08:12;22.13;;;10.25;;
60851;SDS011;48553;50.766;2.900;2023-11-21T03:11:13;23.48;;;10.27;;
60851;SDS011;48553;50.766;2.900;2023-11-21T03:14:14;21.85;;;9.65;;
60851;SDS011;48553;50.766;2.900;2023-11-21T03:17:14;25.75;;;10.07;;
60851;SDS011;48553;50.766;2.900;2023-11-21T03:20:15;21.90;;;9.57;;
60851;SDS011;48553;50.766;2.900;2023-11-21T03:23:16;26.25;;;9.98;;
60851;SDS011;48553;50.766;2.900;2023-11-21T03:26:16;21.77;;;9.55;;
60851;SDS011;48553;50.766;2.900;2023-11-21T03:29:17;24.05;;;10.00;;
60851;SDS011;48553;50.766;2.900;2023-11-21T03:32:17;19.42;;;9.05;;
60851;SDS011;48553;50.766;2.900;2023-11-21T03:35:18;18.25;;;8.73;;
60851;SDS011;48553;50.766;2.900;2023-11-21T03:38:21;21.63;;;9.32;;
60851;SDS011;48553;50.766;2.900;2023-11-21T03:41:21;23.23;;;9.18;;
60851;SDS011;48553;50.766;2.900;2023-11-21T03:44:21;21.65;;;9.63;;
60851;SDS011;48553;50.766;2.900;2023-11-21T03:47:22;22.42;;;8.82;;
60851;SDS011;48553;50.766;2.900;2023-11-21T03:50:22;20.85;;;8.40;;
60851;SDS011;48553;50.766;2.900;2023-11-21T03:53:23;20.70;;;8.68;;
60851;SDS011;48553;50.766;2.900;2023-11-21T03:56:23;19.85;;;8.25;;
60851;SDS011;48553;50.766;2.900;2023-11-21T03:59:23;21.50;;;9.15;;
60851;SDS011;48553;50.766;2.900;2023-11-21T04:02:24;18.15;;;8.40;;
60851;SDS011;48553;50.766;2.900;2023-11-21T04:05:26;18.33;;;8.68;;
60851;SDS011;48553;50.766;2.900;2023-11-21T04:08:26;18.20;;;8.88;;
60851;SDS011;48553;50.766;2.900;2023-11-21T04:11:26;18.05;;;8.98;;
60851;SDS011;48553;50.766;2.900;2023-11-21T04:14:29;21.08;;;9.02;;
60851;SDS011;48553;50.766;2.900;2023-11-21T04:17:30;21.90;;;8.82;;
60851;SDS011;48553;50.766;2.900;2023-11-21T04:20:30;21.60;;;9.45;;
60851;SDS011;48553;50.766;2.900;2023-11-21T04:23:31;21.73;;;9.43;;
60851;SDS011;48553;50.766;2.900;2023-11-21T04:26:31;19.52;;;8.90;;
60851;SDS011;48553;50.766;2.900;2023-11-21T04:29:32;20.63;;;9.45;;
60851;SDS011;48553;50.766;2.900;2023-11-21T04:32:33;19.65;;;9.25;;
60851;SDS011;48553;50.766;2.900;2023-11-21T04:35:33;20.05;;;9.65;;
60851;SDS011;48553;50.766;2.900;2023-11-21T04:38:34;20.05;;;8.52;;
60851;SDS011;48553;50.766;2.900;2023-11-21T04:41:34;19.63;;;8.20;;
60851;SDS011;48553;50.766;2.900;2023-11-21T04:44:36;16.80;;;6.85;;
60851;SDS011;48553;50.766;2.900;2023-11-21T04:47:37;13.07;;;6.70;;
60851;SDS011;48553;50.766;2.900;2023-11-21T04:50:37;13.20;;;5.32;;
60851;SDS011;48553;50.766;2.900;2023-11-21T04:53:38;10.55;;;4.07;;
60851;SDS011;48553;50.766;2.900;2023-11-21T04:56:39;10.15;;;3.88;;
60851;SDS011;48553;50.766;2.900;2023-11-21T04:59:39;9.20;;;3.83;;
60851;SDS011;48553;50.766;2.900;2023-11-21T05:02:40;7.40;;;3.05;;
60851;SDS011;48553;50.766;2.900;2023-11-21T05:05:41;8.88;;;3.40;;
60851;SDS011;48553;50.766;2.900;2023-11-21T05:08:42;6.88;;;2.65;;
60851;SDS011;48553;50.766;2.900;2023-11-21T05:11:42;4.50;;;1.95;;
60851;SDS011;48553;50.766;2.900;2023-11-21T05:14:42;6.65;;;2.00;;
60851;SDS011;48553;50.766;2.900;2023-11-21T05:17:44;5.97;;;1.80;;
60851;SDS011;48553;50.766;2.900;2023-11-21T05:20:45;4.60;;;1.63;;
60851;SDS011;48553;50.766;2.900;2023-11-21T05:23:47;4.60;;;1.23;;
60851;SDS011;48553;50.766;2.900;2023-11-21T05:26:47;5.65;;;1.30;;
60851;SDS011;48553;50.766;2.900;2023-11-21T05:29:48;4.05;;;1.23;;
60851;SDS011;48553;50.766;2.900;2023-11-21T05:32:48;7.50;;;1.38;;
60851;SDS011;48553;50.766;2.900;2023-11-21T05:35:49;5.13;;;1.42;;
60851;SDS011;48553;50.766;2.900;2023-11-21T05:38:50;8.85;;;1.33;;
60851;SDS011;48553;50.766;2.900;2023-11-21T05:41:50;4.32;;;1.27;;
60851;SDS011;48553;50.766;2.900;2023-11-21T05:44:51;4.30;;;1.30;;
60851;SDS011;48553;50.766;2.900;2023-11-21T05:47:51;6.03;;;1.45;;
60851;SDS011;48553;50.766;2.900;2023-11-21T05:50:52;8.45;;;1.40;;
60851;SDS011;48553;50.766;2.900;2023-11-21T05:53:52;5.05;;;1.35;;
60851;SDS011;48553;50.766;2.900;2023-11-21T05:56:53;5.25;;;1.40;;
60851;SDS011;48553;50.766;2.900;2023-11-21T05:59:53;2.83;;;1.42;;
60851;SDS011;48553;50.766;2.900;2023-11-21T06:02:54;3.42;;;1.60;;
60851;SDS011;48553;50.766;2.900;2023-11-21T06:05:55;3.50;;;1.45;;
60851;SDS011;48553;50.766;2.900;2023-11-21T06:08:55;3.63;;;1.30;;
60851;SDS011;48553;50.766;2.900;2023-11-21T06:11:56;3.35;;;1.58;;
60851;SDS011;48553;50.766;2.900;2023-11-21T06:14:56;4.07;;;1.50;;
60851;SDS011;48553;50.766;2.900;2023-11-21T06:17:57;6.88;;;1.73;;
60851;SDS011;48553;50.766;2.900;2023-11-21T06:20:57;6.72;;;1.80;;
60851;SDS011;48553;50.766;2.900;2023-11-21T06:24:00;4.93;;;1.85;;
60851;SDS011;48553;50.766;2.900;2023-11-21T06:27:03;5.15;;;1.70;;
60851;SDS011;48553;50.766;2.900;2023-11-21T06:30:05;8.13;;;2.10;;
60851;SDS011;48553;50.766;2.900;2023-11-21T06:33:09;5.13;;;2.13;;
60851;SDS011;48553;50.766;2.900;2023-11-21T06:36:10;4.97;;;2.33;;
60851;SDS011;48553;50.766;2.900;2023-11-21T06:39:11;6.65;;;2.58;;
60851;SDS011;48553;50.766;2.900;2023-11-21T06:42:11;5.57;;;2.80;;
60851;SDS011;48553;50.766;2.900;2023-11-21T06:45:12;7.10;;;3.20;;
60851;SDS011;48553;50.766;2.900;2023-11-21T06:48:13;7.80;;;2.85;;
60851;SDS011;48553;50.766;2.900;2023-11-21T06:51:14;5.97;;;3.15;;
60851;SDS011;48553;50.766;2.900;2023-11-21T06:54:15;7.97;;;3.25;;
60851;SDS011;48553;50.766;2.900;2023-11-21T06:57:15;7.70;;;3.47;;
60851;SDS011;48553;50.766;2.900;2023-11-21T07:00:16;6.85;;;3.83;;
60851;SDS011;48553;50.766;2.900;2023-11-21T07:03:20;8.77;;;3.80;;
60851;SDS011;48553;50.766;2.900;2023-11-21T07:06:20;8.43;;;4.00;;
60851;SDS011;48553;50.766;2.900;2023-11-21T07:09:21;8.75;;;4.32;;
60851;SDS011;48553;50.766;2.900;2023-11-21T07:12:22;9.52;;;4.63;;
60851;SDS011;48553;50.766;2.900;2023-11-21T07:15:23;10.00;;;4.75;;
60851;SDS011;48553;50.766;2.900;2023-11-21T07:18:25;10.90;;;5.43;;
60851;SDS011;48553;50.766;2.900;2023-11-21T07:21:26;10.98;;;5.75;;
60851;SDS011;48553;50.766;2.900;2023-11-21T07:24:26;13.88;;;5.90;;
60851;SDS011;48553;50.766;2.900;2023-11-21T07:27:27;13.20;;;6.07;;
60851;SDS011;48553;50.766;2.900;2023-11-21T07:30:28;11.57;;;5.80;;
60851;SDS011;48553;50.766;2.900;2023-11-21T07:33:28;10.32;;;5.43;;
60851;SDS011;48553;50.766;2.900;2023-11-21T07:36:29;11.85;;;6.07;;
60851;SDS011;48553;50.766;2.900;2023-11-21T07:39:29;13.75;;;5.72;;
60851;SDS011;48553;50.766;2.900;2023-11-21T07:42:30;15.32;;;5.40;;
60851;SDS011;48553;50.766;2.900;2023-11-21T07:45:30;10.93;;;5.18;;
60851;SDS011;48553;50.766;2.900;2023-11-21T07:48:31;10.65;;;5.32;;
60851;SDS011;48553;50.766;2.900;2023-11-21T07:51:31;9.05;;;5.20;;
60851;SDS011;48553;50.766;2.900;2023-11-21T07:54:32;9.40;;;4.90;;
60851;SDS011;48553;50.766;2.900;2023-11-21T07:57:35;10.65;;;5.10;;
60851;SDS011;48553;50.766;2.900;2023-11-21T08:00:36;10.48;;;5.00;;
60851;SDS011;48553;50.766;2.900;2023-11-21T08:03:37;10.27;;;4.78;;
60851;SDS011;48553;50.766;2.900;2023-11-21T08:06:38;10.30;;;4.85;;
60851;SDS011;48553;50.766;2.900;2023-11-21T08:09:38;8.35;;;4.30;;
60851;SDS011;48553;50.766;2.900;2023-11-21T08:12:39;10.80;;;4.97;;
60851;SDS011;48553;50.766;2.900;2023-11-21T08:15:39;11.57;;;4.95;;
60851;SDS011;48553;50.766;2.900;2023-11-21T08:18:41;10.82;;;5.15;;
60851;SDS011;48553;50.766;2.900;2023-11-21T08:21:41;9.38;;;5.28;;
60851;SDS011;48553;50.766;2.900;2023-11-21T08:24:42;10.90;;;5.57;;
60851;SDS011;48553;50.766;2.900;2023-11-21T08:27:42;11.15;;;5.55;;
60851;SDS011;48553;50.766;2.900;2023-11-21T08:30:43;11.48;;;5.70;;
60851;SDS011;48553;50.766;2.900;2023-11-21T08:33:44;11.65;;;5.88;;
60851;SDS011;48553;50.766;2.900;2023-11-21T08:36:44;10.52;;;5.78;;
60851;SDS011;48553;50.766;2.900;2023-11-21T08:39:45;13.25;;;6.18;;
60851;SDS011;48553;50.766;2.900;2023-11-21T08:42:48;10.40;;;5.72;;
60851;SDS011;48553;50.766;2.900;2023-11-21T08:45:48;9.13;;;4.88;;
60851;SDS011;48553;50.766;2.900;2023-11-21T08:48:49;10.02;;;5.43;;
60851;SDS011;48553;50.766;2.900;2023-11-21T08:51:52;10.05;;;5.15;;
60851;SDS011;48553;50.766;2.900;2023-11-21T08:54:55;10.63;;;5.32;;
60851;SDS011;48553;50.766;2.900;2023-11-21T08:58:02;9.23;;;4.85;;
60851;SDS011;48553;50.766;2.900;2023-11-21T09:01:05;10.40;;;4.43;;
60851;SDS011;48553;50.766;2.900;2023-11-21T09:04:07;7.97;;;4.45;;
60851;SDS011;48553;50.766;2.900;2023-11-21T09:07:08;9.23;;;4.25;;
60851;SDS011;48553;50.766;2.900;2023-11-21T09:10:10;8.55;;;4.28;;
60851;SDS011;48553;50.766;2.900;2023-11-21T09:13:11;8.52;;;3.83;;
60851;SDS011;48553;50.766;2.900;2023-11-21T09:16:13;6.35;;;3.53;;
60851;SDS011;48553;50.766;2.900;2023-11-21T09:19:15;7.25;;;3.88;;
60851;SDS011;48553;50.766;2.900;2023-11-21T09:22:16;6.65;;;3.40;;
60851;SDS011;48553;50.766;2.900;2023-11-21T09:25:17;7.25;;;3.53;;
60851;SDS011;48553;50.766;2.900;2023-11-21T09:31:28;5.55;;;3.40;;
60851;SDS011;48553;50.766;2.900;2023-11-21T09:34:30;7.60;;;3.15;;
60851;SDS011;48553;50.766;2.900;2023-11-21T09:37:31;5.47;;;3.28;;
60851;SDS011;48553;50.766;2.900;2023-11-21T09:40:32;7.00;;;3.17;;
60851;SDS011;48553;50.766;2.900;2023-11-21T09:43:33;5.82;;;2.75;;
60851;SDS011;48553;50.766;2.900;2023-11-21T09:46:33;4.68;;;2.38;;
60851;SDS011;48553;50.766;2.900;2023-11-21T09:49:34;6.53;;;2.75;;
60851;SDS011;48553;50.766;2.900;2023-11-21T09:52:44;4.82;;;2.40;;
60851;SDS011;48553;50.766;2.900;2023-11-21T09:56:06;5.78;;;2.40;;
60851;SDS011;48553;50.766;2.900;2023-11-21T09:59:10;6.63;;;2.50;;
60851;SDS011;48553;50.766;2.900;2023-11-21T10:02:16;4.32;;;2.08;;
60851;SDS011;48553;50.766;2.900;2023-11-21T10:08:22;4.63;;;1.70;;
60851;SDS011;48553;50.766;2.900;2023-11-21T10:11:24;6.00;;;1.83;;
60851;SDS011;48553;50.766;2.900;2023-11-21T10:14:26;3.63;;;1.80;;
60851;SDS011;48553;50.766;2.900;2023-11-21T10:17:29;5.15;;;1.80;;
60851;SDS011;48553;50.766;2.900;2023-11-21T10:20:38;7.03;;;2.00;;
60851;SDS011;48553;50.766;2.900;2023-11-21T10:23:39;6.00;;;1.90;;
60851;SDS011;48553;50.766;2.900;2023-11-21T10:26:39;6.90;;;1.92;;
60851;SDS011;48553;50.766;2.900;2023-11-21T10:29:41;5.05;;;1.50;;
60851;SDS011;48553;50.766;2.900;2023-11-21T10:32:42;2.83;;;1.40;;
60851;SDS011;48553;50.766;2.900;2023-11-21T10:35:51;6.70;;;1.77;;
60851;SDS011;48553;50.766;2.900;2023-11-21T10:38:54;3.30;;;1.70;;
60851;SDS011;48553;50.766;2.900;2023-11-21T10:41:55;5.13;;;1.90;;
60851;SDS011;48553;50.766;2.900;2023-11-21T10:44:56;5.80;;;1.88;;
60851;SDS011;48553;50.766;2.900;2023-11-21T10:47:56;5.05;;;1.83;;
60851;SDS011;48553;50.766;2.900;2023-11-21T10:50:56;3.88;;;1.77;;
60851;SDS011;48553;50.766;2.900;2023-11-21T10:53:57;5.38;;;1.90;;
60851;SDS011;48553;50.766;2.900;2023-11-21T10:57:00;5.95;;;1.90;;
60851;SDS011;48553;50.766;2.900;2023-11-21T11:00:02;4.18;;;1.77;;
60851;SDS011;48553;50.766;2.900;2023-11-21T11:03:04;4.82;;;2.20;;
60851;SDS011;48553;50.766;2.900;2023-11-21T11:06:05;4.70;;;2.00;;
60851;SDS011;48553;50.766;2.900;2023-11-21T11:09:12;5.90;;;2.30;;
60851;SDS011;48553;50.766;2.900;2023-11-21T11:12:13;7.25;;;2.40;;
60851;SDS011;48553;50.766;2.900;2023-11-21T11:15:17;7.00;;;2.10;;
60851;SDS011;48553;50.766;2.900;2023-11-21T11:18:19;6.72;;;2.20;;
60851;SDS011;48553;50.766;2.900;2023-11-21T11:28:06;5.05;;;2.40;;
60851;SDS011;48553;50.766;2.900;2023-11-21T11:37:32;5.50;;;2.60;;
60851;SDS011;48553;50.766;2.900;2023-11-21T11:41:06;4.95;;;2.28;;
60851;SDS011;48553;50.766;2.900;2023-11-21T11:44:02;5.72;;;2.30;;
60851;SDS011;48553;50.766;2.900;2023-11-21T11:47:04;7.80;;;2.65;;
60851;SDS011;48553;50.766;2.900;2023-11-21T11:50:13;7.70;;;2.40;;
60851;SDS011;48553;50.766;2.900;2023-11-21T11:53:16;7.10;;;2.40;;
60851;SDS011;48553;50.766;2.900;2023-11-21T11:56:22;9.63;;;2.70;;
60851;SDS011;48553;50.766;2.900;2023-11-21T11:59:25;6.65;;;2.70;;
60851;SDS011;48553;50.766;2.900;2023-11-21T12:02:26;7.65;;;2.25;;
60851;SDS011;48553;50.766;2.900;2023-11-21T12:05:26;6.20;;;2.72;;
60851;SDS011;48553;50.766;2.900;2023-11-21T12:08:32;5.22;;;2.63;;
60851;SDS011;48553;50.766;2.900;2023-11-21T12:11:36;5.82;;;2.22;;
60851;SDS011;48553;50.766;2.900;2023-11-21T12:14:37;6.57;;;2.88;;
60851;SDS011;48553;50.766;2.900;2023-11-21T12:17:37;6.32;;;2.42;;
60851;SDS011;48553;50.766;2.900;2023-11-21T12:20:38;4.55;;;2.30;;
60851;SDS011;48553;50.766;2.900;2023-11-21T12:23:41;7.30;;;2.58;;
60851;SDS011;48553;50.766;2.900;2023-11-21T12:26:41;6.63;;;2.63;;
60851;SDS011;48553;50.766;2.900;2023-11-21T12:29:42;7.30;;;2.60;;
60851;SDS011;48553;50.766;2.900;2023-11-21T12:32:44;6.18;;;2.50;;
60851;SDS011;48553;50.766;2.900;2023-11-21T12:35:48;5.63;;;2.30;;
60851;SDS011;48553;50.766;2.900;2023-11-21T12:38:48;7.05;;;2.70;;
60851;SDS011;48553;50.766;2.900;2023-11-21T12:41:49;7.43;;;2.88;;
60851;SDS011;48553;50.766;2.900;2023-11-21T12:45:05;5.85;;;2.42;;
60851;SDS011;48553;50.766;2.900;2023-11-21T12:48:07;6.38;;;2.45;;
60851;SDS011;48553;50.766;2.900;2023-11-21T12:51:11;8.85;;;2.65;;
60851;SDS011;48553;50.766;2.900;2023-11-21T12:54:14;4.93;;;2.50;;
60851;SDS011;48553;50.766;2.900;2023-11-21T12:57:15;7.65;;;2.70;;
60851;SDS011;48553;50.766;2.900;2023-11-21T13:00:16;8.68;;;2.78;;
60851;SDS011;48553;50.766;2.900;2023-11-21T13:03:27;9.93;;;2.90;;
60851;SDS011;48553;50.766;2.900;2023-11-21T13:06:27;8.88;;;2.80;;
60851;SDS011;48553;50.766;2.900;2023-11-21T13:09:33;7.10;;;2.45;;
60851;SDS011;48553;50.766;2.900;2023-11-21T13:12:34;5.68;;;2.20;;
60851;SDS011;48553;50.766;2.900;2023-11-21T13:15:39;8.57;;;2.38;;
60851;SDS011;48553;50.766;2.900;2023-11-21T13:18:41;5.55;;;2.10;;
60851;SDS011;48553;50.766;2.900;2023-11-21T13:21:41;7.38;;;2.45;;
60851;SDS011;48553;50.766;2.900;2023-11-21T13:24:42;6.97;;;2.28;;
60851;SDS011;48553;50.766;2.900;2023-11-21T13:27:42;5.85;;;2.25;;
60851;SDS011;48553;50.766;2.900;2023-11-21T13:30:44;7.28;;;2.50;;
60851;SDS011;48553;50.766;2.900;2023-11-21T13:33:44;5.82;;;2.30;;
60851;SDS011;48553;50.766;2.900;2023-11-21T13:36:50;8.45;;;2.47;;
60851;SDS011;48553;50.766;2.900;2023-11-21T13:39:58;6.05;;;2.00;;
60851;SDS011;48553;50.766;2.900;2023-11-21T13:42:58;6.68;;;1.67;;
60851;SDS011;48553;50.766;2.900;2023-11-21T13:45:59;4.28;;;1.73;;
60851;SDS011;48553;50.766;2.900;2023-11-21T13:49:16;4.63;;;1.65;;
60851;SDS011;48553;50.766;2.900;2023-11-21T13:52:18;4.93;;;1.95;;
60851;SDS011;48553;50.766;2.900;2023-11-21T13:55:22;6.65;;;1.70;;
60851;SDS011;48553;50.766;2.900;2023-11-21T13:58:25;6.32;;;1.60;;
60851;SDS011;48553;50.766;2.900;2023-11-21T14:01:44;8.30;;;1.60;;
60851;SDS011;48553;50.766;2.900;2023-11-21T14:04:53;7.72;;;2.00;;
60851;SDS011;48553;50.766;2.900;2023-11-21T14:07:59;4.82;;;1.80;;
60851;SDS011;48553;50.766;2.900;2023-11-21T14:11:05;6.18;;;1.80;;
60851;SDS011;48553;50.766;2.900;2023-11-21T14:14:06;7.28;;;1.95;;
60851;SDS011;48553;50.766;2.900;2023-11-21T14:17:07;8.85;;;2.97;;
60851;SDS011;48553;50.766;2.900;2023-11-21T14:20:07;11.38;;;2.65;;
60851;SDS011;48553;50.766;2.900;2023-11-21T14:23:15;5.70;;;2.00;;
60851;SDS011;48553;50.766;2.900;2023-11-21T14:26:16;7.95;;;2.10;;
60851;SDS011;48553;50.766;2.900;2023-11-21T14:29:17;9.20;;;2.20;;
60851;SDS011;48553;50.766;2.900;2023-11-21T14:32:23;8.85;;;2.08;;
60851;SDS011;48553;50.766;2.900;2023-11-21T14:35:25;7.13;;;1.92;;
60851;SDS011;48553;50.766;2.900;2023-11-21T14:38:26;4.70;;;1.80;;
60851;SDS011;48553;50.766;2.900;2023-11-21T14:41:28;10.90;;;1.90;;
60851;SDS011;48553;50.766;2.900;2023-11-21T14:44:29;4.05;;;1.85;;
60851;SDS011;48553;50.766;2.900;2023-11-21T14:47:34;7.03;;;1.88;;
60851;SDS011;48553;50.766;2.900;2023-11-21T14:50:37;5.90;;;1.58;;
60851;SDS011;48553;50.766;2.900;2023-11-21T14:53:57;6.05;;;1.73;;
60851;SDS011;48553;50.766;2.900;2023-11-21T14:57:07;7.28;;;1.58;;
60851;SDS011;48553;50.766;2.900;2023-11-21T15:00:18;5.32;;;1.60;;
60851;SDS011;48553;50.766;2.900;2023-11-21T15:03:41;8.98;;;1.83;;
60851;SDS011;48553;50.766;2.900;2023-11-21T15:06:46;7.75;;;1.77;;
60851;SDS011;48553;50.766;2.900;2023-11-21T15:09:48;7.43;;;1.70;;
60851;SDS011;48553;50.766;2.900;2023-11-21T15:12:49;6.90;;;1.63;;
60851;SDS011;48553;50.766;2.900;2023-11-21T15:15:50;7.68;;;1.75;;
60851;SDS011;48553;50.766;2.900;2023-11-21T15:18:51;6.93;;;1.90;;
60851;SDS011;48553;50.766;2.900;2023-11-21T15:21:51;8.85;;;2.00;;
60851;SDS011;48553;50.766;2.900;2023-11-21T15:24:52;7.55;;;1.70;;
60851;SDS011;48553;50.766;2.900;2023-11-21T15:27:53;9.02;;;1.77;;
60851;SDS011;48553;50.766;2.900;2023-11-21T15:30:54;6.00;;;2.10;;
60851;SDS011;48553;50.766;2.900;2023-11-21T15:33:54;5.38;;;1.90;;
60851;SDS011;48553;50.766;2.900;2023-11-21T15:36:59;7.00;;;2.00;;
60851;SDS011;48553;50.766;2.900;2023-11-21T15:40:00;8.70;;;2.30;;
60851;SDS011;48553;50.766;2.900;2023-11-21T15:43:00;7.30;;;2.13;;
60851;SDS011;48553;50.766;2.900;2023-11-21T15:46:03;7.63;;;1.77;;
60851;SDS011;48553;50.766;2.900;2023-11-21T15:49:07;5.88;;;1.98;;
60851;SDS011;48553;50.766;2.900;2023-11-21T15:52:19;5.05;;;1.98;;
60851;SDS011;48553;50.766;2.900;2023-11-21T15:55:20;6.72;;;1.85;;
60851;SDS011;48553;50.766;2.900;2023-11-21T15:58:20;5.95;;;2.30;;
60851;SDS011;48553;50.766;2.900;2023-11-21T16:01:21;8.02;;;1.90;;
60851;SDS011;48553;50.766;2.900;2023-11-21T16:04:22;8.25;;;2.25;;
60851;SDS011;48553;50.766;2.900;2023-11-21T16:07:23;9.52;;;2.05;;
60851;SDS011;48553;50.766;2.900;2023-11-21T16:10:23;7.60;;;2.22;;
60851;SDS011;48553;50.766;2.900;2023-11-21T16:13:24;7.78;;;2.38;;
60851;SDS011;48553;50.766;2.900;2023-11-21T16:16:24;7.47;;;2.22;;
60851;SDS011;48553;50.766;2.900;2023-11-21T16:19:25;6.95;;;2.40;;
60851;SDS011;48553;50.766;2.900;2023-11-21T16:22:25;8.40;;;2.38;;
60851;SDS011;48553;50.766;2.900;2023-11-21T16:25:27;7.13;;;2.50;;
60851;SDS011;48553;50.766;2.900;2023-11-21T16:28:28;8.25;;;2.40;;
60851;SDS011;48553;50.766;2.900;2023-11-21T16:31:28;7.15;;;2.30;;
60851;SDS011;48553;50.766;2.900;2023-11-21T16:34:29;6.88;;;2.50;;
60851;SDS011;48553;50.766;2.900;2023-11-21T16:37:30;10.48;;;2.72;;
60851;SDS011;48553;50.766;2.900;2023-11-21T16:40:31;8.57;;;2.70;;
60851;SDS011;48553;50.766;2.900;2023-11-21T16:43:32;8.07;;;2.95;;
60851;SDS011;48553;50.766;2.900;2023-11-21T16:46:32;7.40;;;2.95;;
60851;SDS011;48553;50.766;2.900;2023-11-21T16:49:33;10.55;;;2.90;;
60851;SDS011;48553;50.766;2.900;2023-11-21T16:52:33;7.18;;;3.00;;
60851;SDS011;48553;50.766;2.900;2023-11-21T16:55:33;9.27;;;2.80;;
60851;SDS011;48553;50.766;2.900;2023-11-21T16:58:35;9.20;;;2.90;;
60851;SDS011;48553;50.766;2.900;2023-11-21T17:01:36;7.07;;;2.75;;
60851;SDS011;48553;50.766;2.900;2023-11-21T17:04:37;12.35;;;3.25;;
60851;SDS011;48553;50.766;2.900;2023-11-21T17:07:41;8.23;;;3.03;;
60851;SDS011;48553;50.766;2.900;2023-11-21T17:10:41;8.68;;;2.97;;
60851;SDS011;48553;50.766;2.900;2023-11-21T17:13:43;10.75;;;3.22;;
60851;SDS011;48553;50.766;2.900;2023-11-21T17:16:44;10.52;;;3.60;;
60851;SDS011;48553;50.766;2.900;2023-11-21T17:19:45;11.32;;;3.50;;
60851;SDS011;48553;50.766;2.900;2023-11-21T17:22:46;12.88;;;3.53;;
60851;SDS011;48553;50.766;2.900;2023-11-21T17:25:47;10.02;;;3.47;;
60851;SDS011;48553;50.766;2.900;2023-11-21T17:28:48;11.38;;;4.10;;
60851;SDS011;48553;50.766;2.900;2023-11-21T17:31:49;15.98;;;4.10;;
60851;SDS011;48553;50.766;2.900;2023-11-21T17:34:50;11.40;;;3.92;;
60851;SDS011;48553;50.766;2.900;2023-11-21T17:37:50;14.55;;;4.18;;
60851;SDS011;48553;50.766;2.900;2023-11-21T17:40:50;11.25;;;4.22;;
60851;SDS011;48553;50.766;2.900;2023-11-21T17:43:51;14.10;;;3.55;;
60851;SDS011;48553;50.766;2.900;2023-11-21T17:46:51;9.40;;;4.30;;
60851;SDS011;48553;50.766;2.900;2023-11-21T17:49:52;8.82;;;3.55;;
60851;SDS011;48553;50.766;2.900;2023-11-21T17:52:53;11.15;;;3.90;;
60851;SDS011;48553;50.766;2.900;2023-11-21T17:55:54;11.27;;;4.00;;
60851;SDS011;48553;50.766;2.900;2023-11-21T17:58:55;10.35;;;3.50;;
60851;SDS011;48553;50.766;2.900;2023-11-21T18:01:56;13.60;;;3.65;;
60851;SDS011;48553;50.766;2.900;2023-11-21T18:04:57;10.60;;;3.70;;
60851;SDS011;48553;50.766;2.900;2023-11-21T18:07:59;10.10;;;3.80;;
60851;SDS011;48553;50.766;2.900;2023-11-21T18:11:00;9.68;;;4.05;;
60851;SDS011;48553;50.766;2.900;2023-11-21T18:14:01;9.13;;;3.83;;
60851;SDS011;48553;50.766;2.900;2023-11-21T18:17:05;11.30;;;3.65;;
60851;SDS011;48553;50.766;2.900;2023-11-21T18:20:08;13.38;;;3.95;;
60851;SDS011;48553;50.766;2.900;2023-11-21T18:23:10;12.52;;;3.80;;
60851;SDS011;48553;50.766;2.900;2023-11-21T18:26:15;13.88;;;4.10;;